createdAt,value
2023-03-17T00:01:54.554Z,22.20
2023-03-17T00:04:24.573Z,24.00
2023-03-17T00:06:54.456Z,25.50
2023-03-17T00:09:23.607Z,24.60
2023-03-17T00:11:52.859Z,22.10
2023-03-17T00:14:22.211Z,23.50
2023-03-17T00:16:52.695Z,22.30
2023-03-17T00:19:26.470Z,22.50
2023-03-17T00:21:55.496Z,24.60
2023-03-17T00:24:25.282Z,25.60
2023-03-17T00:26:53.933Z,23.10
2023-03-17T00:29:22.801Z,21.40
2023-03-17T00:31:52.555Z,24.10
2023-03-17T00:34:24.518Z,25.40
2023-03-17T00:36:53.790Z,24.00
2023-03-17T00:39:25.062Z,22.10
2023-03-17T00:41:56.273Z,22.00
2023-03-17T00:44:25.053Z,22.20
2023-03-17T00:46:57.268Z,23.30
2023-03-17T00:51:54.844Z,21.10
2023-03-17T00:54:23.928Z,21.40
2023-03-17T00:56:52.782Z,23.50
2023-03-17T00:59:27.238Z,22.80
2023-03-17T01:01:56.086Z,22.60
2023-03-17T01:04:25.015Z,20.90
2023-03-17T01:06:54.198Z,22.50
2023-03-17T01:09:27.093Z,25.60
2023-03-17T01:11:56.325Z,24.10
2023-03-17T01:14:25.209Z,24.70
2023-03-17T01:16:54.512Z,23.40
2023-03-17T01:19:23.566Z,23.80
2023-03-17T01:21:52.334Z,22.70
2023-03-17T01:24:21.064Z,22.00
2023-03-17T01:26:50.315Z,22.10
2023-03-17T01:29:19.180Z,21.90
2023-03-17T01:31:48.070Z,21.20
2023-03-17T01:34:17.272Z,22.50
2023-03-17T01:36:46.772Z,23.40
2023-03-17T01:39:16.188Z,23.10
2023-03-17T01:41:45.011Z,23.40
2023-03-17T01:44:16.911Z,22.90
2023-03-17T01:46:46.646Z,22.40
2023-03-17T01:49:20.572Z,22.00
2023-03-17T01:51:58.064Z,23.00
2023-03-17T01:54:34.458Z,21.90
2023-03-17T01:57:08.718Z,22.10
2023-03-17T01:59:43.523Z,22.00
2023-03-17T02:02:17.356Z,22.80
2023-03-17T02:04:46.175Z,23.80
2023-03-17T02:07:15.156Z,22.70
2023-03-17T02:09:44.137Z,23.40
2023-03-17T02:12:14.590Z,23.90
2023-03-17T02:14:44.090Z,22.90
2023-03-17T02:17:14.078Z,22.30
2023-03-17T02:19:44.552Z,22.60
2023-03-17T02:22:13.621Z,23.90
2023-03-17T02:24:48.621Z,24.10
2023-03-17T02:27:20.687Z,22.50
2023-03-17T02:29:50.315Z,23.90
2023-03-17T02:32:20.196Z,22.50
2023-03-17T02:34:50.384Z,21.40
2023-03-17T02:37:19.974Z,20.70
2023-03-17T02:39:48.590Z,21.60
2023-03-17T02:42:17.250Z,20.80
2023-03-17T02:44:45.860Z,21.00
2023-03-17T02:47:15.172Z,21.40
2023-03-17T02:49:44.506Z,20.70
2023-03-17T02:52:13.188Z,20.50
2023-03-17T02:54:42.098Z,20.50
2023-03-17T02:57:11.211Z,21.50
2023-03-17T02:59:39.936Z,21.70
2023-03-17T03:02:09.516Z,20.50
2023-03-17T03:04:38.350Z,21.90
2023-03-17T03:07:07.359Z,20.80
2023-03-17T03:09:36.249Z,21.50
2023-03-17T03:12:09.291Z,21.90
2023-03-17T03:14:38.058Z,20.60
2023-03-17T03:17:06.845Z,22.40
2023-03-17T03:19:35.621Z,21.80
2023-03-17T03:22:04.262Z,20.90
2023-03-17T03:24:32.881Z,20.10
2023-03-17T03:27:01.636Z,20.60
2023-03-17T03:29:30.663Z,20.40
2023-03-17T03:31:59.315Z,19.40
2023-03-17T03:34:28.488Z,19.80
2023-03-17T03:36:57.410Z,20.00
2023-03-17T03:39:26.387Z,20.40
2023-03-17T03:41:56.733Z,18.10
2023-03-17T03:44:25.678Z,18.90
2023-03-17T03:46:54.345Z,17.40
2023-03-17T03:49:23.911Z,20.20
2023-03-17T03:51:54.017Z,20.60
2023-03-17T03:54:22.791Z,21.50
2023-03-17T03:56:51.794Z,22.40
2023-03-17T04:40:44.878Z,23.20
2023-03-17T04:43:13.646Z,19.60
2023-03-17T04:45:42.359Z,18.80
2023-03-17T04:48:11.070Z,19.00
2023-03-17T04:50:39.742Z,23.00
2023-03-17T04:53:08.910Z,19.50
2023-03-17T04:55:37.569Z,24.70
2023-03-17T04:58:06.217Z,26.60
2023-03-17T05:00:38.191Z,23.30
2023-03-17T05:03:23.845Z,22.60
2023-03-17T05:05:54.982Z,19.00
2023-03-17T05:08:23.536Z,18.70
2023-03-17T05:10:52.221Z,21.50
2023-03-17T05:13:21.059Z,19.90
2023-03-17T05:15:51.146Z,18.70
2023-03-17T05:18:23.355Z,19.10
2023-03-17T05:23:21.664Z,17.90
2023-03-17T05:25:50.400Z,15.60
2023-03-17T05:28:20.221Z,19.40
2023-03-17T05:30:50.145Z,16.90
2023-03-17T05:33:19.525Z,17.20
2023-03-17T05:35:48.225Z,16.30
2023-03-17T05:38:17.261Z,18.40
2023-03-17T05:40:49.009Z,16.10
2023-03-17T05:43:18.063Z,16.10
2023-03-17T05:45:47.416Z,42.00
2023-03-17T05:48:16.590Z,105.30
2023-03-17T05:50:45.377Z,21.50
2023-03-17T05:53:14.403Z,45.40
2023-03-17T05:55:43.180Z,24.20
2023-03-17T05:58:12.238Z,47.30
2023-03-17T06:00:41.252Z,56.80
2023-03-17T06:03:10.375Z,28.50
2023-03-17T06:05:39.314Z,54.60
2023-03-17T06:08:08.206Z,23.10
2023-03-17T06:10:37.010Z,39.50
2023-03-17T06:13:05.647Z,36.20
2023-03-17T06:15:36.360Z,35.10
2023-03-17T06:18:05.796Z,19.40
2023-03-17T06:20:34.772Z,14.10
2023-03-17T06:23:06.869Z,12.30
2023-03-17T06:28:04.819Z,12.30
2023-03-17T06:30:35.613Z,12.90
2023-03-17T06:33:06.234Z,12.20
2023-03-17T06:35:35.536Z,12.60
2023-03-17T06:38:04.906Z,12.10
2023-03-17T06:40:33.750Z,11.90
2023-03-17T06:43:02.924Z,9.90
2023-03-17T06:45:32.670Z,9.60
2023-03-17T06:48:03.986Z,10.30
2023-03-17T06:50:32.669Z,11.40
2023-03-17T06:53:01.290Z,25.00
2023-03-17T06:55:31.383Z,63.60
2023-03-17T06:58:01.359Z,44.50
2023-03-17T07:00:30.815Z,21.60
2023-03-17T07:02:59.419Z,56.30
2023-03-17T07:05:28.258Z,42.90
2023-03-17T07:07:58.698Z,38.10
2023-03-17T07:10:27.591Z,30.90
2023-03-17T07:12:58.426Z,28.10
2023-03-17T07:15:27.110Z,11.50
2023-03-17T07:17:56.103Z,8.10
2023-03-17T07:20:24.717Z,9.90
2023-03-17T07:22:53.409Z,8.90
2023-03-17T07:25:22.321Z,10.10
2023-03-17T07:27:51.777Z,12.30
2023-03-17T07:30:21.179Z,6.70
2023-03-17T07:32:49.926Z,10.00
2023-03-17T07:35:18.993Z,8.00
2023-03-17T07:37:47.694Z,12.00
2023-03-17T07:40:18.071Z,14.10
2023-03-17T07:42:47.184Z,14.70
2023-03-17T07:45:17.812Z,18.50
2023-03-17T07:47:47.665Z,15.30
2023-03-17T07:50:16.293Z,9.20
2023-03-17T07:52:44.947Z,21.30
2023-03-17T07:55:13.691Z,7.90
2023-03-17T07:57:42.763Z,6.70
2023-03-17T08:00:14.612Z,7.10
2023-03-17T08:02:43.852Z,16.10
2023-03-17T08:05:13.712Z,29.50
2023-03-17T08:07:42.822Z,27.20
2023-03-17T08:10:13.071Z,10.30
2023-03-17T08:12:41.942Z,10.50
2023-03-17T08:15:12.391Z,8.30
2023-03-17T08:17:41.385Z,8.70
2023-03-17T08:20:12.628Z,53.80
2023-03-17T08:22:41.486Z,9.80
2023-03-17T08:25:10.925Z,17.50
2023-03-17T08:27:40.763Z,7.00
2023-03-17T08:30:12.126Z,7.50
2023-03-17T08:32:41.122Z,7.10
2023-03-17T08:35:14.551Z,12.70
2023-03-17T08:37:43.514Z,20.50
2023-03-17T08:40:16.326Z,12.40
2023-03-17T08:42:45.974Z,7.30
2023-03-17T08:45:16.110Z,8.60
2023-03-17T08:47:45.484Z,8.60
2023-03-17T08:50:20.473Z,7.20
2023-03-17T08:52:49.488Z,6.20
2023-03-17T08:55:19.473Z,7.20
2023-03-17T08:57:48.850Z,6.80
2023-03-17T09:00:20.460Z,6.60
2023-03-17T09:05:18.907Z,5.80
2023-03-17T09:07:49.411Z,6.40
2023-03-17T09:10:22.014Z,6.70
2023-03-17T09:12:52.697Z,5.90
2023-03-17T09:15:22.753Z,6.90
2023-03-17T09:17:51.408Z,6.60
2023-03-17T09:20:20.333Z,5.80
2023-03-17T09:22:49.101Z,6.20
2023-03-17T09:25:18.430Z,7.30
2023-03-17T09:27:47.190Z,8.90
2023-03-17T09:30:17.292Z,5.70
2023-03-17T09:32:46.421Z,5.40
2023-03-17T09:35:15.068Z,9.80
2023-03-17T09:37:44.072Z,6.30
2023-03-17T09:40:17.876Z,5.70
2023-03-17T09:42:59.138Z,5.60
2023-03-17T09:45:33.879Z,3.70
2023-03-17T09:48:17.008Z,5.30
2023-03-17T09:50:53.047Z,4.60
2023-03-17T09:53:27.304Z,6.20
2023-03-17T09:55:58.286Z,4.60
2023-03-17T09:58:32.012Z,4.90
2023-03-17T10:01:02.788Z,3.50
2023-03-17T10:03:32.592Z,5.00
2023-03-17T10:06:17.626Z,4.40
2023-03-17T10:08:54.782Z,4.00
2023-03-17T10:11:33.512Z,4.60
2023-03-17T10:14:11.642Z,5.50
2023-03-17T10:16:47.807Z,4.70
2023-03-17T10:19:26.483Z,5.00
2023-03-17T10:22:00.259Z,4.50
2023-03-17T10:24:31.858Z,6.30
2023-03-17T10:27:06.162Z,4.20
2023-03-17T10:29:35.487Z,5.90
2023-03-17T10:32:05.366Z,3.80
2023-03-17T10:34:38.044Z,4.00
2023-03-17T10:37:08.886Z,4.00
2023-03-17T10:39:46.236Z,4.10
2023-03-17T10:42:23.327Z,3.90
2023-03-17T10:44:55.575Z,4.60
2023-03-17T10:47:29.664Z,4.30
2023-03-17T10:50:02.042Z,6.50
2023-03-17T10:52:34.374Z,6.30
2023-03-17T10:55:05.979Z,4.90
2023-03-17T10:57:38.182Z,5.30
2023-03-17T11:00:16.272Z,5.20
2023-03-17T11:02:48.182Z,4.30
2023-03-17T11:05:22.354Z,4.20
2023-03-17T11:07:57.032Z,5.00
2023-03-17T11:10:28.648Z,4.40
2023-03-17T11:15:33.581Z,3.40
2023-03-17T11:18:05.806Z,4.50
2023-03-17T11:20:49.745Z,4.70
2023-03-17T11:23:45.538Z,4.30
2023-03-17T11:26:27.407Z,5.30
2023-03-17T11:29:12.793Z,4.00
2023-03-17T11:31:48.007Z,4.80
2023-03-17T11:34:26.677Z,4.50
2023-03-17T11:37:03.350Z,4.20
2023-03-17T11:39:42.679Z,4.90
2023-03-17T11:42:17.048Z,8.00
2023-03-17T11:45:08.316Z,4.10
2023-03-17T11:47:49.630Z,5.40
2023-03-17T11:50:26.212Z,4.10
2023-03-17T11:53:10.157Z,15.00
2023-03-17T11:55:45.769Z,4.50
2023-03-17T11:58:22.655Z,7.20
2023-03-17T12:00:56.651Z,3.70
2023-03-17T12:03:32.782Z,4.50
2023-03-17T12:06:05.908Z,5.00
2023-03-17T12:08:42.002Z,5.50
2023-03-17T12:11:14.901Z,9.50
2023-03-17T12:13:49.067Z,5.20
2023-03-17T12:16:25.052Z,4.30
2023-03-17T12:19:00.656Z,5.30
2023-03-17T12:21:36.164Z,4.50
2023-03-17T12:24:13.252Z,6.40
2023-03-17T12:26:49.046Z,4.30
2023-03-17T12:29:27.109Z,7.60
2023-03-17T12:32:03.053Z,4.50
2023-03-17T12:34:41.358Z,6.90
2023-03-17T12:37:10.544Z,5.90
2023-03-17T12:39:44.167Z,6.00
2023-03-17T12:42:25.397Z,4.60
2023-03-17T12:45:21.784Z,4.00
2023-03-17T12:48:01.297Z,4.10
2023-03-17T12:50:47.366Z,4.70
2023-03-17T12:53:32.682Z,4.60
2023-03-17T12:56:08.382Z,5.30
2023-03-17T12:58:39.744Z,8.80
2023-03-17T13:01:19.809Z,6.20
2023-03-17T13:04:02.039Z,4.10
2023-03-17T13:09:33.160Z,3.90
2023-03-17T13:12:03.224Z,5.40
2023-03-17T13:14:42.827Z,5.70
2023-03-17T13:17:32.716Z,5.10
2023-03-17T13:20:14.337Z,4.00
2023-03-17T13:23:02.171Z,4.00
2023-03-17T13:25:34.330Z,4.00
2023-03-17T13:31:08.101Z,5.50
2023-03-17T13:33:43.470Z,3.80
2023-03-17T13:36:27.088Z,3.90
2023-03-17T13:39:19.892Z,4.30
2023-03-17T13:42:17.977Z,4.10
2023-03-17T13:45:07.450Z,4.00
2023-03-17T13:47:39.489Z,4.00
2023-03-17T13:50:14.532Z,5.10
2023-03-17T13:52:48.424Z,4.40
2023-03-17T13:56:03.407Z,3.80
2023-03-17T13:58:49.168Z,4.10
2023-03-17T14:01:18.317Z,6.20
2023-03-17T14:03:50.568Z,4.60
2023-03-17T14:06:22.102Z,4.20
2023-03-17T14:08:54.072Z,3.90
2023-03-17T14:11:31.149Z,4.40
2023-03-17T14:14:31.486Z,4.20
2023-03-17T14:17:11.412Z,4.00
2023-03-17T14:19:40.934Z,3.70
2023-03-17T14:22:22.197Z,4.20
2023-03-17T14:24:55.370Z,4.20
2023-03-17T14:27:26.298Z,4.00
2023-03-17T14:29:55.106Z,4.00
2023-03-17T14:32:25.594Z,4.10
2023-03-17T14:34:59.123Z,4.70
2023-03-17T14:37:28.697Z,4.30
2023-03-17T14:39:58.823Z,3.80
2023-03-17T14:42:29.930Z,4.60
2023-03-17T14:45:03.641Z,4.10
2023-03-17T14:47:38.816Z,3.70
2023-03-17T14:50:17.158Z,4.40
2023-03-17T14:52:45.894Z,3.50
2023-03-17T14:55:15.891Z,4.00
2023-03-17T14:57:50.504Z,4.20
2023-03-17T15:00:35.831Z,3.80
2023-03-17T15:03:16.940Z,3.10
2023-03-17T15:05:46.485Z,3.60
2023-03-17T15:08:42.130Z,3.80
2023-03-17T15:11:19.010Z,5.20
2023-03-17T15:13:49.246Z,4.30
2023-03-17T15:16:22.817Z,4.80
2023-03-17T15:19:02.075Z,4.40
2023-03-17T15:21:34.937Z,4.80
2023-03-17T15:24:22.156Z,3.90
2023-03-17T15:26:50.732Z,4.70
2023-03-17T15:29:19.687Z,4.00
2023-03-17T15:31:48.392Z,5.80
2023-03-17T15:34:17.133Z,4.50
2023-03-17T15:36:46.915Z,4.60
2023-03-17T15:39:15.573Z,6.60
2023-03-17T15:41:44.406Z,4.90
2023-03-17T15:44:13.072Z,4.30
2023-03-17T15:46:41.816Z,4.40
2023-03-17T15:49:12.087Z,4.20
2023-03-17T15:51:40.708Z,3.90
2023-03-17T15:54:15.025Z,4.30
2023-03-17T15:56:44.229Z,4.10
2023-03-17T15:59:12.906Z,3.90
2023-03-17T16:01:41.824Z,4.40
2023-03-17T16:04:10.449Z,4.40
2023-03-17T16:06:39.257Z,4.40
2023-03-17T16:09:16.050Z,4.20
2023-03-17T16:11:44.770Z,4.50
2023-03-17T16:14:13.494Z,4.70
2023-03-17T16:16:45.056Z,4.20
2023-03-17T16:19:19.543Z,4.50
2023-03-17T16:21:48.883Z,4.70
2023-03-17T16:24:22.099Z,7.50
2023-03-17T16:26:51.546Z,5.80
2023-03-17T16:29:21.577Z,4.40
2023-03-17T16:31:50.968Z,5.70
2023-03-17T16:34:22.450Z,5.40
2023-03-17T16:36:51.451Z,5.90
2023-03-17T16:39:22.460Z,5.90
2023-03-17T16:41:52.861Z,6.00
2023-03-17T16:44:22.775Z,5.80
2023-03-17T16:46:51.897Z,5.80
2023-03-17T16:49:22.318Z,7.10
2023-03-17T16:51:51.116Z,6.30
2023-03-17T16:54:19.963Z,8.00
2023-03-17T16:56:48.659Z,7.50
2023-03-17T16:59:20.894Z,5.80
2023-03-17T17:04:17.172Z,8.10
2023-03-17T17:06:46.000Z,8.10
2023-03-17T17:09:14.799Z,12.60
2023-03-17T17:11:43.434Z,9.40
2023-03-17T17:14:12.037Z,17.80
2023-03-17T17:16:40.980Z,14.20
2023-03-17T17:19:16.372Z,10.40
2023-03-17T17:21:45.272Z,10.10
2023-03-17T17:24:15.056Z,8.20
2023-03-17T17:26:43.869Z,10.00
2023-03-17T17:29:12.500Z,10.90
2023-03-17T17:31:41.147Z,8.20
2023-03-17T17:34:09.950Z,12.10
2023-03-17T17:36:38.931Z,14.60
2023-03-17T17:39:09.382Z,16.80
2023-03-17T17:41:38.012Z,31.50
2023-03-17T17:44:07.008Z,26.40
2023-03-17T17:46:35.965Z,25.60
2023-03-17T17:49:05.174Z,20.30
2023-03-17T17:51:34.208Z,10.50
2023-03-17T17:54:02.902Z,10.10
2023-03-17T17:56:36.141Z,12.60
2023-03-17T17:59:05.029Z,17.80
2023-03-17T18:01:34.361Z,23.00
2023-03-17T18:04:03.037Z,15.50
2023-03-17T18:06:31.651Z,9.30
2023-03-17T18:09:00.344Z,7.70
2023-03-17T18:11:29.074Z,6.30
2023-03-17T18:13:57.973Z,5.90
2023-03-17T18:16:26.733Z,6.00
2023-03-17T18:18:57.079Z,6.50
2023-03-17T18:21:25.835Z,6.80
2023-03-17T18:23:54.738Z,7.10
2023-03-17T18:26:23.669Z,7.10
2023-03-17T18:28:52.786Z,7.10
2023-03-17T18:31:26.144Z,7.30
2023-03-17T18:33:58.603Z,11.20
2023-03-17T18:36:27.804Z,14.20
2023-03-17T18:38:56.903Z,17.50
2023-03-17T18:41:27.311Z,13.00
2023-03-17T18:43:56.277Z,12.30
2023-03-17T18:46:25.466Z,11.70
2023-03-17T18:48:54.456Z,10.50
2023-03-17T18:51:23.067Z,9.30
2023-03-17T18:53:51.647Z,9.30
2023-03-17T18:56:20.965Z,9.30
2023-03-17T18:58:49.785Z,8.50
2023-03-17T19:01:18.565Z,9.00
2023-03-17T19:03:47.313Z,9.30
2023-03-17T19:06:17.867Z,9.20
2023-03-17T19:08:47.741Z,10.20
2023-03-17T19:11:19.491Z,10.30
2023-03-17T19:13:48.702Z,9.20
2023-03-17T19:16:18.143Z,10.30
2023-03-17T19:18:46.927Z,10.10
2023-03-17T19:21:15.838Z,9.90
2023-03-17T19:23:44.521Z,10.80
2023-03-17T19:26:13.280Z,10.60
2023-03-17T19:28:41.964Z,10.70
2023-03-17T19:31:11.135Z,8.70
2023-03-17T19:33:39.969Z,9.40
2023-03-17T19:36:11.679Z,8.70
2023-03-17T19:38:40.822Z,8.70
2023-03-17T19:41:09.440Z,8.50
2023-03-17T19:43:41.292Z,9.20
2023-03-17T19:48:39.428Z,8.20
2023-03-17T19:51:08.638Z,7.10
2023-03-17T19:53:37.471Z,7.40
2023-03-17T19:56:07.518Z,7.60
2023-03-17T19:58:36.826Z,8.50
2023-03-17T20:01:06.945Z,7.90
2023-03-17T20:03:41.680Z,7.40
2023-03-17T20:06:10.716Z,10.20
2023-03-17T20:08:39.682Z,7.00
2023-03-17T20:11:08.656Z,7.20
2023-03-17T20:13:37.441Z,7.40
2023-03-17T20:16:08.332Z,7.90
2023-03-17T20:18:36.965Z,14.10
2023-03-17T20:21:10.983Z,7.60
2023-03-17T20:23:39.867Z,7.70
2023-03-17T20:26:08.672Z,6.90
2023-03-17T20:28:38.140Z,6.80
2023-03-17T20:31:07.482Z,7.50
2023-03-17T20:33:36.538Z,7.70
2023-03-17T20:36:06.800Z,6.80
2023-03-17T20:38:38.243Z,7.00
2023-03-17T20:41:09.052Z,7.50
2023-03-17T20:43:37.970Z,7.00
2023-03-17T20:46:08.169Z,6.50
2023-03-17T20:48:37.294Z,7.80
2023-03-17T20:51:06.811Z,7.40
2023-03-17T20:53:36.194Z,6.80
2023-03-17T20:56:06.840Z,8.10
2023-03-17T20:58:36.044Z,7.10
2023-03-17T21:01:05.121Z,7.40
2023-03-17T21:03:34.290Z,7.30
2023-03-17T21:06:04.237Z,7.40
2023-03-17T21:08:36.049Z,8.10
2023-03-17T21:11:05.476Z,11.20
2023-03-17T21:13:35.649Z,8.00
2023-03-17T21:16:06.202Z,9.20
2023-03-17T21:18:35.349Z,8.30
2023-03-17T21:21:05.161Z,8.10
2023-03-17T21:23:35.385Z,7.40
2023-03-17T21:26:05.262Z,8.70
2023-03-17T21:28:34.861Z,8.30
2023-03-17T21:31:04.677Z,8.20
2023-03-17T21:33:34.110Z,7.40
2023-03-17T21:36:02.821Z,8.50
2023-03-17T21:38:31.559Z,11.30
2023-03-17T21:41:20.700Z,9.70
2023-03-17T21:43:49.837Z,8.60
2023-03-17T21:46:18.454Z,12.10
2023-03-17T21:48:47.943Z,11.30
2023-03-17T21:51:16.656Z,9.20
2023-03-17T21:53:46.213Z,8.90
2023-03-17T21:56:15.086Z,9.90
2023-03-17T21:58:43.856Z,9.80
2023-03-17T22:01:13.713Z,7.80
2023-03-17T22:03:42.499Z,7.00
2023-03-17T22:06:11.760Z,7.00
2023-03-17T22:08:40.548Z,6.40
2023-03-17T22:11:10.917Z,7.30
2023-03-17T22:13:40.091Z,6.90
2023-03-17T22:16:10.616Z,6.20
2023-03-17T22:18:39.605Z,6.80
2023-03-17T22:21:09.534Z,6.30
2023-03-17T22:23:40.884Z,5.80
2023-03-17T22:26:13.063Z,6.50
2023-03-17T22:28:43.109Z,6.70
2023-03-17T22:31:13.484Z,6.70
2023-03-17T22:33:43.570Z,6.40
2023-03-17T22:36:12.532Z,6.20
2023-03-17T22:38:41.472Z,6.60
2023-03-17T22:41:13.044Z,6.00
2023-03-17T22:43:41.734Z,6.40
2023-03-17T22:46:11.291Z,6.50
2023-03-17T22:48:40.589Z,5.20
2023-03-17T22:51:11.706Z,6.20
2023-03-17T22:53:40.954Z,6.40
2023-03-17T22:56:11.337Z,6.10
2023-03-17T22:58:40.716Z,5.60
2023-03-17T23:01:11.639Z,5.40
2023-03-17T23:03:41.289Z,6.10
2023-03-17T23:06:11.119Z,6.00
2023-03-17T23:08:42.106Z,6.30
2023-03-17T23:11:12.923Z,7.50
2023-03-17T23:13:41.762Z,7.30
2023-03-17T23:16:10.825Z,6.00
2023-03-17T23:18:40.323Z,6.10
2023-03-17T23:21:09.681Z,6.10
2023-03-17T23:23:38.648Z,6.90
2023-03-17T23:26:08.677Z,5.80
2023-03-17T23:28:37.400Z,6.00
2023-03-17T23:31:06.349Z,5.70
2023-03-17T23:33:35.016Z,6.40
2023-03-17T23:36:04.309Z,6.60
2023-03-17T23:38:33.515Z,5.80
2023-03-17T23:41:02.149Z,5.80
2023-03-17T23:43:31.125Z,6.60
2023-03-17T23:46:00.565Z,5.60
2023-03-17T23:48:29.247Z,5.20
2023-03-17T23:51:06.058Z,5.70
2023-03-17T23:53:34.718Z,6.00
2023-03-17T23:56:04.259Z,5.60
2023-03-17T23:58:33.084Z,5.90
